createdAt,value
2023-04-21T00:01:44.239Z,-504.00
2023-04-21T00:06:56.475Z,-504.00
2023-04-21T00:12:14.412Z,-540.00
2023-04-21T00:17:24.636Z,-504.00
2023-04-21T00:22:36.442Z,-504.00
2023-04-21T00:27:44.095Z,-504.00
2023-04-21T00:32:51.649Z,-540.00
2023-04-21T00:37:59.185Z,-468.00
2023-04-21T00:43:06.621Z,-540.00
2023-04-21T00:48:14.287Z,-540.00
2023-04-21T00:53:22.063Z,-540.00
2023-04-21T00:58:29.653Z,-504.00
2023-04-21T01:03:52.575Z,-540.00
2023-04-21T01:09:00.219Z,-504.00
2023-04-21T01:14:12.763Z,-540.00
2023-04-21T01:19:21.503Z,-504.00
2023-04-21T01:24:32.307Z,-540.00
2023-04-21T01:29:40.309Z,-504.00
2023-04-21T01:34:49.981Z,-504.00
2023-04-21T01:39:57.494Z,-540.00
2023-04-21T01:45:05.193Z,-504.00
2023-04-21T01:50:12.718Z,-504.00
2023-04-21T01:55:24.043Z,-504.00
2023-04-21T02:00:31.695Z,-540.00
2023-04-21T02:05:39.073Z,-540.00
2023-04-21T02:10:48.257Z,-504.00
2023-04-21T02:16:09.780Z,-504.00
2023-04-21T02:21:03.056Z,-504.00
2023-04-21T02:26:10.482Z,-540.00
2023-04-21T02:31:17.898Z,-540.00
2023-04-21T02:36:25.329Z,-540.00
2023-04-21T02:41:32.676Z,-504.00
2023-04-21T02:46:40.012Z,-540.00
2023-04-21T02:51:47.269Z,-468.00
2023-04-21T02:56:54.588Z,-468.00
2023-04-21T03:02:01.978Z,-468.00
2023-04-21T03:07:09.387Z,-468.00
2023-04-21T03:12:16.808Z,-468.00
2023-04-21T03:17:24.477Z,-504.00
2023-04-21T03:22:32.080Z,-504.00
2023-04-21T03:27:39.625Z,-504.00
2023-04-21T03:32:47.306Z,-540.00
2023-04-21T03:37:54.763Z,-468.00
2023-04-21T03:43:02.121Z,-468.00
2023-04-21T03:48:09.679Z,-540.00
2023-04-21T03:53:17.068Z,-540.00
2023-04-21T03:58:24.469Z,-504.00
2023-04-21T04:03:31.862Z,-504.00
2023-04-21T04:08:39.039Z,-504.00
2023-04-21T04:13:46.348Z,-504.00
2023-04-21T04:18:53.774Z,-504.00
2023-04-21T04:24:01.295Z,-504.00
2023-04-21T04:29:08.958Z,-504.00
2023-04-21T04:34:16.548Z,-468.00
2023-04-21T04:39:27.401Z,-468.00
2023-04-21T04:44:32.265Z,-468.00
2023-04-21T04:49:39.681Z,-468.00
2023-04-21T04:54:47.085Z,-504.00
2023-04-21T04:59:54.480Z,-468.00
2023-04-21T05:05:01.766Z,-468.00
2023-04-21T05:10:08.949Z,-468.00
2023-04-21T05:15:16.295Z,-468.00
2023-04-21T05:20:23.587Z,-432.00
2023-04-21T05:25:30.817Z,-432.00
2023-04-21T05:30:38.087Z,-432.00
2023-04-21T05:35:45.331Z,-432.00
2023-04-21T05:40:52.509Z,-396.00
2023-04-21T05:45:59.781Z,-396.00
2023-04-21T05:51:07.007Z,-432.00
2023-04-21T05:56:14.376Z,-396.00
2023-04-21T06:01:21.855Z,-360.00
2023-04-21T06:06:29.261Z,-360.00
2023-04-21T06:11:36.720Z,-324.00
2023-04-21T06:16:44.423Z,-324.00
2023-04-21T06:21:51.668Z,-252.00
2023-04-21T06:26:59.063Z,-288.00
2023-04-21T06:32:06.621Z,-324.00
2023-04-21T06:37:13.851Z,-324.00
2023-04-21T06:42:21.248Z,-288.00
2023-04-21T06:47:28.684Z,-252.00
2023-04-21T06:52:35.866Z,-252.00
2023-04-21T06:57:43.122Z,-216.00
2023-04-21T07:02:50.589Z,-180.00
2023-04-21T07:07:57.783Z,-252.00
2023-04-21T07:13:05.112Z,-288.00
2023-04-21T07:18:12.470Z,-360.00
2023-04-21T07:23:19.660Z,-360.00
2023-04-21T07:28:26.935Z,-396.00
2023-04-21T07:33:34.279Z,-288.00
2023-04-21T07:38:41.491Z,-216.00
2023-04-21T07:43:48.764Z,-252.00
2023-04-21T07:48:56.014Z,19476.00
2023-04-21T07:54:03.419Z,19260.00
2023-04-21T07:59:10.829Z,17532.00
2023-04-21T08:04:18.784Z,16452.00
2023-04-21T08:09:25.960Z,17028.00
2023-04-21T08:14:33.573Z,16344.00
2023-04-21T08:19:41.128Z,16308.00
2023-04-21T08:24:48.533Z,16236.00
2023-04-21T08:29:56.152Z,16200.00
2023-04-21T08:35:03.852Z,16092.00
2023-04-21T08:40:11.296Z,16164.00
2023-04-21T08:45:19.027Z,16092.00
2023-04-21T08:50:26.617Z,16092.00
2023-04-21T08:55:43.154Z,16128.00
2023-04-21T09:00:50.670Z,16164.00
2023-04-21T09:05:58.541Z,16164.00
2023-04-21T09:11:05.715Z,16128.00
2023-04-21T09:16:13.155Z,16128.00
2023-04-21T09:21:20.933Z,16056.00
2023-04-21T09:26:45.950Z,16092.00
2023-04-21T09:31:41.146Z,16020.00
2023-04-21T09:36:48.531Z,16020.00
2023-04-21T09:42:00.676Z,16056.00
2023-04-21T09:47:08.268Z,16092.00
2023-04-21T09:52:19.046Z,16092.00
2023-04-21T09:57:25.837Z,16056.00
2023-04-21T10:02:33.376Z,16164.00
2023-04-21T10:07:40.849Z,16308.00
2023-04-21T10:12:48.167Z,16812.00
2023-04-21T10:17:55.637Z,18936.00
2023-04-21T10:23:02.981Z,24948.00
2023-04-21T10:28:10.350Z,26460.00
2023-04-21T10:33:17.691Z,26208.00
2023-04-21T10:38:25.054Z,23724.00
2023-04-21T10:43:32.323Z,21312.00
2023-04-21T10:48:39.713Z,20340.00
2023-04-21T10:53:47.324Z,18720.00
2023-04-21T10:58:54.612Z,17496.00
2023-04-21T11:04:02.045Z,16740.00
2023-04-21T11:09:09.363Z,16308.00
2023-04-21T11:14:16.275Z,16092.00
2023-04-21T11:19:23.609Z,15984.00
2023-04-21T11:24:30.952Z,15948.00
2023-04-21T11:29:38.136Z,15840.00
2023-04-21T11:34:45.319Z,15876.00
2023-04-21T11:39:52.511Z,15912.00
2023-04-21T11:44:59.663Z,15804.00
2023-04-21T11:50:06.903Z,15840.00
2023-04-21T11:55:14.183Z,15804.00
2023-04-21T12:00:21.323Z,15876.00
2023-04-21T12:05:28.544Z,15840.00
2023-04-21T12:10:35.853Z,15840.00
2023-04-21T12:15:43.090Z,15840.00
2023-04-21T12:20:50.405Z,15840.00
2023-04-21T12:25:57.733Z,15840.00
2023-04-21T12:31:05.254Z,15840.00
2023-04-21T12:36:12.684Z,15768.00
2023-04-21T12:41:20.258Z,15840.00
2023-04-21T12:46:27.625Z,15948.00
2023-04-21T12:51:34.736Z,16092.00
2023-04-21T12:56:42.247Z,13212.00
2023-04-21T13:01:49.684Z,17424.00
2023-04-21T13:06:57.089Z,17820.00
2023-04-21T13:12:04.781Z,16884.00
2023-04-21T13:17:11.853Z,20412.00
2023-04-21T13:22:19.178Z,19476.00
2023-04-21T13:27:26.553Z,19116.00
2023-04-21T13:32:33.997Z,20088.00
2023-04-21T13:37:41.363Z,21564.00
2023-04-21T13:42:48.772Z,22320.00
2023-04-21T13:47:55.921Z,23544.00
2023-04-21T13:53:03.188Z,24552.00
2023-04-21T13:58:10.465Z,24264.00
2023-04-21T14:03:17.823Z,24948.00
2023-04-21T14:08:25.035Z,25164.00
2023-04-21T14:13:37.845Z,24912.00
2023-04-21T14:18:39.594Z,24876.00
2023-04-21T14:23:46.858Z,25092.00
2023-04-21T14:28:54.437Z,25164.00
2023-04-21T14:34:01.667Z,23904.00
2023-04-21T14:39:08.917Z,24192.00
2023-04-21T14:44:16.451Z,23976.00
2023-04-21T14:49:23.719Z,24552.00
2023-04-21T14:54:30.960Z,24876.00
2023-04-21T14:59:38.245Z,23976.00
2023-04-21T15:04:45.411Z,21528.00
2023-04-21T15:09:52.706Z,21420.00
2023-04-21T15:15:00.049Z,23040.00
2023-04-21T15:20:07.313Z,24012.00
2023-04-21T15:25:14.587Z,23004.00
2023-04-21T15:30:21.887Z,22140.00
2023-04-21T15:35:29.053Z,21168.00
2023-04-21T15:40:41.181Z,20304.00
2023-04-21T15:45:43.577Z,21636.00
2023-04-21T15:50:50.723Z,21168.00
2023-04-21T15:55:57.888Z,21492.00
2023-04-21T16:01:05.216Z,21528.00
2023-04-21T16:06:12.624Z,21564.00
2023-04-21T16:11:19.635Z,20376.00
2023-04-21T16:16:26.889Z,20376.00
2023-04-21T16:21:33.984Z,19944.00
2023-04-21T16:26:41.314Z,20484.00
2023-04-21T16:31:48.702Z,18684.00
2023-04-21T16:36:55.866Z,17748.00
2023-04-21T16:42:03.159Z,17496.00
2023-04-21T16:47:10.394Z,16524.00
2023-04-21T16:52:17.509Z,15948.00
2023-04-21T16:57:24.663Z,15696.00
2023-04-21T17:02:32.054Z,14004.00
2023-04-21T17:07:39.060Z,12636.00
2023-04-21T17:12:46.268Z,11808.00
2023-04-21T17:17:53.502Z,10044.00
2023-04-21T17:23:00.718Z,9252.00
2023-04-21T17:28:07.903Z,8244.00
2023-04-21T17:33:17.146Z,6624.00
2023-04-21T17:38:22.264Z,5652.00
2023-04-21T17:43:29.513Z,10728.00
2023-04-21T17:48:36.857Z,10188.00
2023-04-21T17:53:44.000Z,9540.00
2023-04-21T17:58:52.544Z,9000.00
2023-04-21T18:04:01.327Z,8532.00
2023-04-21T18:09:07.507Z,8244.00
2023-04-21T18:14:14.676Z,8028.00
2023-04-21T18:19:21.882Z,7956.00
2023-04-21T18:24:29.047Z,7596.00
2023-04-21T18:29:36.515Z,7704.00
2023-04-21T18:34:43.867Z,7668.00
2023-04-21T18:39:51.139Z,7668.00
2023-04-21T18:44:59.496Z,7632.00
2023-04-21T18:50:06.467Z,7704.00
2023-04-21T18:55:13.950Z,7596.00
2023-04-21T19:00:21.372Z,7344.00
2023-04-21T19:05:30.489Z,7344.00
2023-04-21T19:10:36.599Z,7632.00
2023-04-21T19:15:43.990Z,7560.00
2023-04-21T19:20:51.495Z,7524.00
2023-04-21T19:25:59.120Z,7416.00
2023-04-21T19:31:06.863Z,7452.00
2023-04-21T19:36:14.476Z,7632.00
2023-04-21T19:41:22.173Z,7632.00
2023-04-21T19:46:29.950Z,7776.00
2023-04-21T19:51:37.295Z,7704.00
2023-04-21T19:56:44.848Z,7776.00
2023-04-21T20:01:52.534Z,7740.00
2023-04-21T20:07:00.575Z,8676.00
2023-04-21T20:12:08.071Z,8712.00
2023-04-21T20:17:15.713Z,8748.00
2023-04-21T20:22:23.160Z,8748.00
2023-04-21T20:27:30.379Z,8712.00
2023-04-21T20:32:37.712Z,8532.00
2023-04-21T20:37:45.246Z,8712.00
2023-04-21T20:42:52.663Z,8712.00
2023-04-21T20:47:59.919Z,8532.00
2023-04-21T20:53:07.168Z,8532.00
2023-04-21T20:58:14.355Z,8460.00
2023-04-21T21:03:21.828Z,8424.00
2023-04-21T21:08:28.925Z,8532.00
2023-04-21T21:13:36.097Z,8568.00
2023-04-21T21:18:43.289Z,8532.00
2023-04-21T21:23:50.601Z,8604.00
2023-04-21T21:28:57.738Z,8460.00
2023-04-21T21:34:05.031Z,8496.00
2023-04-21T21:39:12.364Z,8532.00
2023-04-21T21:44:19.614Z,8640.00
2023-04-21T21:49:26.955Z,8640.00
2023-04-21T21:54:34.251Z,8676.00
2023-04-21T21:59:41.729Z,8604.00
2023-04-21T22:04:48.710Z,8784.00
2023-04-21T22:09:55.965Z,8604.00
2023-04-21T22:15:03.126Z,8676.00
2023-04-21T22:20:10.411Z,8748.00
2023-04-21T22:25:17.723Z,8640.00
2023-04-21T22:30:24.962Z,8712.00
2023-04-21T22:35:32.170Z,8712.00
2023-04-21T22:40:39.407Z,8676.00
2023-04-21T22:45:46.650Z,8460.00
2023-04-21T22:50:53.818Z,8460.00
2023-04-21T22:56:01.038Z,8424.00
2023-04-21T23:01:08.335Z,8352.00
2023-04-21T23:06:15.470Z,8460.00
2023-04-21T23:11:22.670Z,8604.00
2023-04-21T23:16:29.868Z,8388.00
2023-04-21T23:21:37.130Z,8496.00
2023-04-21T23:26:44.360Z,8460.00
2023-04-21T23:31:51.626Z,8460.00
2023-04-21T23:36:58.789Z,8460.00
2023-04-21T23:42:06.016Z,8568.00
2023-04-21T23:47:13.162Z,8532.00
2023-04-21T23:52:20.427Z,8568.00
2023-04-21T23:57:27.661Z,8532.00
